Nearby METAR Reports

 

PAEN - Kenai, Alaska, USA
Distance from station: ESE 2mi, 4km
Updated: Tue, 20-Oct-2020 6:53am AKDT
Overcast
Overcast
 Wind from calm
Wind: Calm
Temperature: 27°F , -3°C
Dew Point: 23°F , -5°C
Humidity: 86%
Barometer: 30.30 inHg , 1026.1 hPa
Clouds: Overcast
Visibility: 10 miles , 16 km
Cloud details: Overcast 1500 ft
2020/10/20 14:53 PAEN 201453Z 00000KT 10SM OVC015 M03/M05 A3030 RMK AO2 SLP263 I3000 T10281050 53014 $
PASX - Soldotna, Alaska, USA
Distance from station: SE 12mi, 19km
Updated: Tue, 20-Oct-2020 6:56am AKDT
Overcast
Overcast
 Wind from ENE
Wind: ENE 3 mph , 6 km/h
Temperature: 25°F , -4°C
Dew Point: 23°F , -5°C
Humidity: 93%
Barometer: 30.32 inHg , 1026.8 hPa
Clouds: Overcast
Visibility: 10 miles , 16 km
Cloud details: Mostly cloudy 1800 ft
Overcast 8000 ft
2020/10/20 14:56 PASX 201456Z AUTO 07003KT 10SM BKN018 OVC080 M04/M05 A3032 RMK AO2 SLP278 T10441050 53012 FZRANO
 
PANC - Anchorage Intl, Alaska, USA
Distance from station: NE 59mi, 96km
Updated: Tue, 20-Oct-2020 6:53am AKDT
Clear
Clear
 Wind from calm
Wind: Calm
Temperature: 25°F , -4°C
Dew Point: 21°F , -6°C
Humidity: 86%
Barometer: 30.29 inHg , 1025.7 hPa
Clouds: Clear
Visibility: 10 miles , 16 km
2020/10/20 14:53 PANC 201453Z 00000KT 10SM CLR M04/M06 A3029 RMK AO2 SLP258 I1000 I3000 T10391056 51013 $
PALH - Anchorage/Lake H, Alaska, USA
Distance from station: NE 61mi, 99km
Updated: Tue, 20-Oct-2020 6:53am AKDT
Clear
Clear
 Wind from calm
Wind: Calm
Temperature: 25°F , -4°C
Dew Point: 23°F , -5°C
Humidity: 93%
Barometer: 30.30 inHg , 1026.1 hPa
Clouds: Clear
Visibility: 10 miles , 16 km
2020/10/20 14:53 PALH 201453Z AUTO 00000KT 10SM CLR M04/M05 A3030 RMK AO2 SLP261 T10391050 51013 TSNO
 
PAHO - Homer, Alaska, USA
Distance from station: S 66mi, 106km
Updated: Tue, 20-Oct-2020 6:53am AKDT
Clear
Clear
 Wind from N
Wind: N 6 mph , 9 km/h
Temperature: 27°F , -3°C
Wind Chill: 20°F , -7°C
Dew Point: 27°F , -3°C
Humidity: 100%
Barometer: 30.30 inHg , 1026.1 hPa
Clouds: Clear
Visibility: 10 miles , 16 km
2020/10/20 14:53 PAHO 201453Z 01005KT 10SM CLR M03/M03 A3030
PAMR - Anchorage/Merril, Alaska, USA
Distance from station: NE 66mi, 106km
Updated: Tue, 20-Oct-2020 6:53am AKDT
Few Clouds
Few Clouds
 Wind from calm
Wind: Calm
Temperature: 25°F , -4°C
Dew Point: 19°F , -7°C
Humidity: 80%
Barometer: 30.29 inHg , 1025.7 hPa
Clouds: Few Clouds
Visibility: 10 miles , 16 km
Cloud details: Few Clouds 25000 ft
2020/10/20 14:53 PAMR 201453Z 00000KT 10SM FEW250 M04/M07 A3029 RMK AO2 SLP257 T10391072 51012 $
 
PAED - Elmendorf Afb, Alaska, USA
Distance from station: NE 69mi, 110km
Updated: Tue, 20-Oct-2020 6:56am AKDT
Few Clouds
Few Clouds
 Wind from calm
Wind: Calm
Temperature: 25°F , -4°C
Dew Point: 21°F , -6°C
Humidity: 86%
Barometer: 30.28 inHg , 1025.4 hPa
Clouds: Few Clouds
Visibility: 10 miles , 16 km
Cloud details: Few Clouds 6000 ft
Few Clouds 25000 ft
2020/10/20 14:56 PAED 201456Z 00000KT 10SM FEW060 FEW250 M04/M06 A3028 RMK AO2A SLP252 T10421062 52012 $
PAWD - Seward, Alaska, USA
Distance from station: ESE 71mi, 115km
Updated: Tue, 20-Oct-2020 6:53am AKDT
Clear
Clear
 Wind from N
Wind: N 14 mph , 22 km/h, Gust: 23 mph , 37 km/h
Temperature: 37°F , 3°C
Wind Chill: 28°F , -2°C
Dew Point: 23°F , -5°C
Humidity: 56%
Barometer: 30.21 inHg , 1023 hPa
Clouds: Clear
Visibility: 10 miles , 16 km
2020/10/20 14:53 PAWD 201453Z AUTO 35012G20KT 10SM CLR 03/M05 A3021 RMK AO2 SLP231 T00281050 51012 TSNO
 
PASC - Deadhorse, Alaska, USA
Distance from station: ENE 670mi, 1078km
Updated: Tue, 20-Oct-2020 6:53am AKDT
Overcast
Overcast
 Wind from WSW
Wind: WSW 9 mph , 15 km/h
Temperature: 18°F , -8°C
Wind Chill: 7°F , -14°C
Dew Point: 14°F , -10°C
Humidity: 86%
Barometer: 30.40 inHg , 1029.5 hPa
Clouds: Overcast
Visibility: 10 miles , 16 km
Cloud details: Overcast 1500 ft
2020/10/20 14:53 PASC 201453Z 25008KT 10SM OVC015 M08/M10 A3040 RMK AO2 SLP298 T10831100 51016
PAAD - Point Thomson, Alaska, USA
Distance from station: ENE 680mi, 1094km
Updated: Tue, 20-Oct-2020 7:15am AKDT
Overcast
Overcast
 Wind from WSW
Wind: WSW 13 mph , 20 km/h
Temperature: 18°F , -8°C
Wind Chill: 5°F , -15°C
Dew Point: 16°F , -9°C
Humidity: 93%
Barometer: 30.41 inHg , 1029.8 hPa
Clouds: Overcast
Visibility: 10 miles , 16 km
Cloud details: Mostly cloudy 1600 ft
Overcast 2800 ft
2020/10/20 15:15 PAAD 201515Z AUTO 24011KT 10SM BKN016 OVC028 M08/M09 A3041 RMK AO2 T10811090


kenaipeople.com website

Dans Automotive

Lower Peninsula Power Sports

Freddies RoadHouse

Alaska Weather Net